PWSweather.com
Personal Weather Stations
Station Observations

LlefiĆ BadalonaES

Lat: 41.44, Lon: 2.2175

Elevation: 213.254

Station Type: oregon WMR918

http://www.estacionmeteorologicabadalonallefia.com

Latest ConditionsUpdated 10:00:28 PM GMT+01:01 Sunday, May 29, 2016
Currently Today's Max Today's Min Today's Average
Temperature 64.8°F18.2°C 79.2°F26.2°C 62.8°F17.1°C 69.2°F20.7°C
Dew Point 57.1°F13.9°C 58.4°F14.7°C 34.1°F1.2°C 43.9°F6.6°C
Winds 8.5 mph ENE13.7 kmh ENE 17.7 mph SW28.5 kmh SW - 5.6 mph 9.0 kmh
Wind Gusts 16.0 mph25.7 kmh 33.4 mph53.8 kmh - -
Humidity 76% 79% 23% 45%
Pressure 29.97 in1014.9 mb 29.97 in1014.9 mb 29.80 in1009.1 mb -
Precipitation - 0.01 in0.3 mm - -
Hour Temp Dew Point Humidity Winds Wind Gusts Pressure Precip Precip Rate Daily Precip Total
10:00 PM 64.8°F18.2°C 57.1°F13.9°C 76% 8.5 mph ENE13.7 kmh ENE 16.0 mph25.7 kmh 29.97 in1014.9 mb - 0.00 in0.0 mm 0.01 in0.3 mm
09:50 PM 65.1°F18.4°C 58.4°F14.7°C 79% 10.9 mph E17.5 kmh E 17.1 mph27.5 kmh 29.97 in1014.9 mb - 0.00 in0.0 mm 0.01 in0.3 mm
09:40 PM 65.3°F18.5°C 57.9°F14.4°C 77% 9.2 mph NE14.8 kmh NE 14.2 mph22.9 kmh 29.97 in1014.9 mb - 0.00 in0.0 mm 0.01 in0.3 mm
09:30 PM 65.5°F18.6°C 57.3°F14.1°C 75% 6.6 mph E10.6 kmh E 10.5 mph16.9 kmh 29.97 in1014.9 mb - 0.00 in0.0 mm 0.01 in0.3 mm
09:20 PM 65.7°F18.7°C 56.8°F13.8°C 73% 7.6 mph NE12.2 kmh NE 10.7 mph17.2 kmh 29.94 in1013.9 mb - 0.00 in0.0 mm 0.01 in0.3 mm
09:10 PM 65.8°F18.8°C 56.2°F13.4°C 71% 7.2 mph ENE11.6 kmh ENE 11.9 mph19.2 kmh 29.94 in1013.9 mb - 0.00 in0.0 mm 0.01 in0.3 mm
09:00 PM 66.0°F18.9°C 54.7°F12.6°C 67% 7.3 mph NE11.7 kmh NE 10.7 mph17.2 kmh 29.94 in1013.9 mb - 0.00 in0.0 mm 0.01 in0.3 mm
08:50 PM 66.4°F19.1°C 52.9°F11.6°C 62% 10.6 mph NE17.1 kmh NE 18.3 mph29.5 kmh 29.94 in1013.9 mb - 0.00 in0.0 mm 0.01 in0.3 mm
08:40 PM 66.6°F19.2°C 51.3°F10.7°C 58% 11.9 mph ENE19.2 kmh ENE 20.0 mph32.2 kmh 29.94 in1013.9 mb - 0.00 in0.0 mm 0.01 in0.3 mm
08:30 PM 66.7°F19.3°C 49.6°F9.8°C 54% 14.1 mph ENE22.7 kmh ENE 22.7 mph36.5 kmh 29.94 in1013.9 mb - 0.00 in0.0 mm 0.01 in0.3 mm
08:20 PM 67.1°F19.5°C 48.9°F9.4°C 52% 11.7 mph ENE18.8 kmh ENE 22.7 mph36.5 kmh 29.94 in1013.9 mb - 0.00 in0.0 mm 0.01 in0.3 mm
08:10 PM 67.4°F19.7°C 48.6°F9.2°C 51% 8.7 mph ENE14.0 kmh ENE 16.6 mph26.7 kmh 29.91 in1012.9 mb - 0.00 in0.0 mm 0.01 in0.3 mm
08:00 PM 67.8°F19.9°C 46.8°F8.2°C 47% 14.4 mph ENE23.2 kmh ENE 18.3 mph29.5 kmh 29.91 in1012.9 mb - 0.00 in0.0 mm 0.01 in0.3 mm
07:50 PM 68.0°F20.0°C 46.4°F8.0°C 46% 3.9 mph ESE6.3 kmh ESE 10.5 mph16.9 kmh 29.91 in1012.9 mb - 0.00 in0.0 mm 0.01 in0.3 mm
07:40 PM 68.7°F20.4°C 47.1°F8.4°C 46% 9.1 mph ENE14.6 kmh ENE 16.0 mph25.7 kmh 29.91 in1012.9 mb - 0.00 in0.0 mm 0.01 in0.3 mm
07:30 PM 70.4°F21.3°C 46.2°F7.9°C 42% 5.0 mph E8.0 kmh E 9.9 mph15.9 kmh 29.91 in1012.9 mb - 0.00 in0.0 mm 0.01 in0.3 mm
07:20 PM 72.3°F22.4°C 40.8°F4.9°C 32% 4.3 mph E6.9 kmh E 7.6 mph12.2 kmh 29.88 in1011.9 mb - 0.00 in0.0 mm 0.01 in0.3 mm
07:10 PM 72.3°F22.4°C 40.0°F4.4°C 31% 4.5 mph S7.2 kmh S 8.1 mph13.0 kmh 29.88 in1011.9 mb - 0.00 in0.0 mm 0.01 in0.3 mm
07:00 PM 72.3°F22.4°C 37.4°F3.0°C 28% 6.7 mph SSW10.8 kmh SSW 10.7 mph17.2 kmh 29.88 in1011.9 mb - 0.00 in0.0 mm 0.01 in0.3 mm
06:50 PM 72.5°F22.5°C 37.5°F3.1°C 28% 8.3 mph SW13.4 kmh SW 10.7 mph17.2 kmh 29.88 in1011.9 mb - 0.00 in0.0 mm 0.01 in0.3 mm
06:40 PM 72.9°F22.7°C 36.9°F2.7°C 27% 7.7 mph SSW12.4 kmh SSW 15.4 mph24.8 kmh 29.88 in1011.9 mb - 0.00 in0.0 mm 0.01 in0.3 mm
06:30 PM 73.0°F22.8°C 34.1°F1.2°C 24% 7.2 mph SW11.6 kmh SW 14.2 mph22.9 kmh 29.88 in1011.9 mb - 0.00 in0.0 mm 0.01 in0.3 mm
06:20 PM 73.0°F22.8°C 34.1°F1.2°C 24% 10.5 mph SSW16.9 kmh SSW 16.6 mph26.7 kmh 29.88 in1011.9 mb - 0.00 in0.0 mm 0.01 in0.3 mm
06:10 PM 73.3°F22.9°C 34.3°F1.3°C 24% 10.5 mph SW16.9 kmh SW 16.6 mph26.7 kmh 29.86 in1011.2 mb - 0.00 in0.0 mm 0.01 in0.3 mm
06:00 PM 73.1°F22.8°C 34.1°F1.2°C 24% 7.4 mph SSW11.9 kmh SSW 16.6 mph26.7 kmh 29.86 in1011.2 mb - 0.00 in0.0 mm 0.01 in0.3 mm
05:50 PM 73.1°F22.8°C 34.1°F1.2°C 24% 10.9 mph SW17.5 kmh SW 19.5 mph31.4 kmh 29.86 in1011.2 mb - 0.00 in0.0 mm 0.01 in0.3 mm
05:40 PM 73.0°F22.8°C 34.1°F1.2°C 24% 14.2 mph SW22.9 kmh SW 31.4 mph50.5 kmh 29.86 in1011.2 mb - 0.00 in0.0 mm 0.01 in0.3 mm
05:30 PM 73.0°F22.8°C 34.1°F1.2°C 24% 14.1 mph SSW22.7 kmh SSW 18.9 mph30.4 kmh 29.86 in1011.2 mb - 0.00 in0.0 mm 0.01 in0.3 mm
05:20 PM 73.2°F22.9°C 34.2°F1.2°C 24% 17.7 mph SW28.5 kmh SW 33.4 mph53.8 kmh 29.86 in1011.2 mb - 0.00 in0.0 mm 0.01 in0.3 mm
05:10 PM 73.3°F22.9°C 34.3°F1.3°C 24% 14.0 mph SW22.5 kmh SW 28.5 mph45.9 kmh 29.86 in1011.2 mb - 0.00 in0.0 mm 0.01 in0.3 mm
05:00 PM 73.2°F22.9°C 34.2°F1.2°C 24% 16.9 mph SW27.2 kmh SW 30.2 mph48.6 kmh 29.86 in1011.2 mb - 0.00 in0.0 mm 0.01 in0.3 mm
04:50 PM 73.6°F23.1°C 34.5°F1.4°C 24% 16.5 mph SSW26.6 kmh SSW 31.4 mph50.5 kmh 29.86 in1011.2 mb - 0.00 in0.0 mm 0.01 in0.3 mm
04:40 PM 73.8°F23.2°C 34.7°F1.5°C 24% 8.9 mph SSW14.3 kmh SSW 16.0 mph25.7 kmh 29.86 in1011.2 mb - 0.00 in0.0 mm 0.01 in0.3 mm
04:30 PM 73.9°F23.3°C 34.8°F1.6°C 24% 10.9 mph SSW17.5 kmh SSW 14.2 mph22.9 kmh 29.86 in1011.2 mb - 0.00 in0.0 mm 0.01 in0.3 mm
04:20 PM 74.9°F23.8°C 35.7°F2.1°C 24% 9.6 mph SSW15.4 kmh SSW 21.8 mph35.1 kmh 29.86 in1011.2 mb - 0.00 in0.0 mm 0.01 in0.3 mm
04:10 PM 74.3°F23.5°C 35.2°F1.8°C 24% 7.9 mph SW12.7 kmh SW 13.7 mph22.0 kmh 29.86 in1011.2 mb - 0.00 in0.0 mm 0.01 in0.3 mm
04:00 PM 75.2°F24.0°C 34.8°F1.6°C 23% 8.5 mph SSW13.7 kmh SSW 18.9 mph30.4 kmh 29.86 in1011.2 mb - 0.00 in0.0 mm 0.01 in0.3 mm
03:50 PM 77.3°F25.2°C 36.6°F2.6°C 23% 6.3 mph SW10.1 kmh SW 14.2 mph22.9 kmh 29.86 in1011.2 mb - 0.00 in0.0 mm 0.01 in0.3 mm
03:40 PM 78.8°F26.0°C 37.9°F3.3°C 23% 6.2 mph SW10.0 kmh SW 13.7 mph22.0 kmh 29.82 in1009.8 mb - 0.00 in0.0 mm 0.01 in0.3 mm
03:30 PM 78.8°F26.0°C 37.9°F3.3°C 23% 9.7 mph NW15.6 kmh NW 16.6 mph26.7 kmh 29.82 in1009.8 mb - 0.00 in0.0 mm 0.01 in0.3 mm
03:20 PM 79.2°F26.2°C 38.2°F3.4°C 23% 4.2 mph SSW6.8 kmh SSW 8.1 mph13.0 kmh 29.82 in1009.8 mb - 0.00 in0.0 mm 0.01 in0.3 mm
03:10 PM 78.5°F25.8°C 37.6°F3.1°C 23% 3.6 mph SSW5.8 kmh SSW 5.2 mph8.4 kmh 29.86 in1011.2 mb - 0.00 in0.0 mm 0.01 in0.3 mm
03:00 PM 78.2°F25.7°C 37.4°F3.0°C 23% 9.6 mph SW15.4 kmh SW 21.2 mph34.1 kmh 29.86 in1011.2 mb - 0.00 in0.0 mm 0.01 in0.3 mm
02:50 PM 78.1°F25.6°C 37.3°F2.9°C 23% 8.8 mph SW14.2 kmh SW 20.6 mph33.2 kmh 29.82 in1009.8 mb - 0.00 in0.0 mm 0.01 in0.3 mm
02:40 PM 78.2°F25.7°C 37.3°F2.9°C 23% 5.8 mph SW9.3 kmh SW 15.4 mph24.8 kmh 29.86 in1011.2 mb - 0.00 in0.0 mm 0.01 in0.3 mm
02:30 PM 77.0°F25.0°C 36.3°F2.4°C 23% 9.1 mph SW14.6 kmh SW 17.1 mph27.5 kmh 29.86 in1011.2 mb - 0.00 in0.0 mm 0.01 in0.3 mm
02:20 PM 77.7°F25.4°C 36.9°F2.7°C 23% 7.2 mph WSW11.6 kmh WSW 19.5 mph31.4 kmh 29.86 in1011.2 mb - 0.00 in0.0 mm 0.01 in0.3 mm
02:10 PM 77.2°F25.1°C 36.5°F2.5°C 23% 9.2 mph WSW14.8 kmh WSW 11.3 mph18.2 kmh 29.86 in1011.2 mb - 0.00 in0.0 mm 0.01 in0.3 mm
02:00 PM 77.0°F25.0°C 36.3°F2.4°C 23% 8.5 mph WSW13.7 kmh WSW 10.7 mph17.2 kmh 29.86 in1011.2 mb - 0.00 in0.0 mm 0.01 in0.3 mm
01:50 PM 77.1°F25.1°C 36.4°F2.4°C 23% 5.5 mph W8.9 kmh W 13.1 mph21.1 kmh 29.86 in1011.2 mb - 0.00 in0.0 mm 0.01 in0.3 mm
01:40 PM 76.5°F24.7°C 35.9°F2.2°C 23% 5.8 mph W9.3 kmh W 8.1 mph13.0 kmh 29.86 in1011.2 mb - 0.00 in0.0 mm 0.01 in0.3 mm
01:30 PM 76.3°F24.6°C 35.8°F2.1°C 23% 8.4 mph WSW13.5 kmh WSW 10.7 mph17.2 kmh 29.86 in1011.2 mb - 0.00 in0.0 mm 0.01 in0.3 mm
01:20 PM 76.2°F24.6°C 35.7°F2.1°C 23% 5.9 mph WSW9.5 kmh WSW 11.9 mph19.2 kmh 29.86 in1011.2 mb - 0.00 in0.0 mm 0.01 in0.3 mm
01:10 PM 75.8°F24.3°C 35.4°F1.9°C 23% 3.1 mph SW5.0 kmh SW 5.2 mph8.4 kmh 29.86 in1011.2 mb - 0.00 in0.0 mm 0.01 in0.3 mm
01:00 PM 75.6°F24.2°C 35.1°F1.7°C 23% 8.3 mph SW13.4 kmh SW 16.6 mph26.7 kmh 29.86 in1011.2 mb - 0.00 in0.0 mm 0.01 in0.3 mm
12:50 PM 75.6°F24.2°C 35.1°F1.7°C 23% 5.4 mph NW8.7 kmh NW 16.6 mph26.7 kmh 29.86 in1011.2 mb - 0.00 in0.0 mm 0.01 in0.3 mm
12:40 PM 75.4°F24.1°C 35.0°F1.7°C 23% 8.4 mph WSW13.5 kmh WSW 15.4 mph24.8 kmh 29.82 in1009.8 mb - 0.00 in0.0 mm 0.01 in0.3 mm
12:30 PM 75.0°F23.9°C 35.7°F2.1°C 24% 4.9 mph SSW7.9 kmh SSW 7.6 mph12.2 kmh 29.82 in1009.8 mb - 0.00 in0.0 mm 0.01 in0.3 mm
12:20 PM 74.7°F23.7°C 35.5°F1.9°C 24% 4.7 mph SW7.6 kmh SW 9.3 mph15.0 kmh 29.86 in1011.2 mb - 0.00 in0.0 mm 0.01 in0.3 mm
12:10 PM 74.1°F23.4°C 35.0°F1.7°C 24% 6.8 mph WSW10.9 kmh WSW 16.0 mph25.7 kmh 29.86 in1011.2 mb - 0.00 in0.0 mm 0.01 in0.3 mm
12:00 PM 73.9°F23.3°C 34.8°F1.6°C 24% 4.9 mph W7.9 kmh W 7.0 mph11.3 kmh 29.86 in1011.2 mb - 0.00 in0.0 mm 0.01 in0.3 mm
11:50 AM 74.1°F23.4°C 35.0°F1.7°C 24% 7.6 mph SW12.2 kmh SW 12.5 mph20.1 kmh 29.86 in1011.2 mb - 0.00 in0.0 mm 0.01 in0.3 mm
11:40 AM 73.3°F22.9°C 34.3°F1.3°C 24% 7.6 mph W12.2 kmh W 9.9 mph15.9 kmh 29.86 in1011.2 mb - 0.00 in0.0 mm 0.01 in0.3 mm
11:30 AM 73.4°F23.0°C 34.4°F1.3°C 24% 8.5 mph W13.7 kmh W 19.5 mph31.4 kmh 29.86 in1011.2 mb - 0.00 in0.0 mm 0.01 in0.3 mm
11:20 AM 73.4°F23.0°C 34.4°F1.3°C 24% 5.3 mph WSW8.5 kmh WSW 14.8 mph23.8 kmh 29.86 in1011.2 mb - 0.00 in0.0 mm 0.01 in0.3 mm
11:10 AM 73.0°F22.8°C 38.0°F3.3°C 28% 7.9 mph NW12.7 kmh NW 11.3 mph18.2 kmh 29.86 in1011.2 mb - 0.00 in0.0 mm 0.01 in0.3 mm
11:00 AM 72.5°F22.5°C 37.5°F3.1°C 28% 6.0 mph WNW9.7 kmh WNW 9.9 mph15.9 kmh 29.86 in1011.2 mb - 0.00 in0.0 mm 0.01 in0.3 mm
10:50 AM 71.4°F21.9°C 36.6°F2.6°C 28% 4.2 mph WNW6.8 kmh WNW 5.2 mph8.4 kmh 29.86 in1011.2 mb - 0.00 in0.0 mm 0.01 in0.3 mm
10:40 AM 71.1°F21.7°C 36.3°F2.4°C 28% 8.3 mph WNW13.4 kmh WNW 16.0 mph25.7 kmh 29.86 in1011.2 mb - 0.00 in0.0 mm 0.01 in0.3 mm
10:30 AM 71.1°F21.7°C 39.7°F4.3°C 32% 7.4 mph WSW11.9 kmh WSW 17.1 mph27.5 kmh 29.86 in1011.2 mb - 0.00 in0.0 mm 0.01 in0.3 mm
10:20 AM 70.6°F21.4°C 39.3°F4.1°C 32% 3.9 mph SW6.3 kmh SW 9.9 mph15.9 kmh 29.86 in1011.2 mb - 0.00 in0.0 mm 0.01 in0.3 mm
10:10 AM 70.2°F21.2°C 38.9°F3.8°C 32% 9.6 mph WSW15.4 kmh WSW 13.7 mph22.0 kmh 29.86 in1011.2 mb - 0.00 in0.0 mm 0.01 in0.3 mm
10:00 AM 70.2°F21.2°C 38.9°F3.8°C 32% 8.4 mph W13.5 kmh W 29.6 mph47.6 kmh 29.86 in1011.2 mb - 0.00 in0.0 mm 0.01 in0.3 mm
09:50 AM 70.0°F21.1°C 38.8°F3.8°C 32% 12.1 mph WSW19.5 kmh WSW 22.7 mph36.5 kmh 29.86 in1011.2 mb - 0.00 in0.0 mm 0.01 in0.3 mm
09:40 AM 70.2°F21.2°C 38.9°F3.8°C 32% 9.4 mph SSW15.1 kmh SSW 10.5 mph16.9 kmh 29.86 in1011.2 mb - 0.00 in0.0 mm 0.01 in0.3 mm
09:30 AM 69.9°F21.1°C 38.7°F3.7°C 32% 6.7 mph WNW10.8 kmh WNW 9.9 mph15.9 kmh 29.86 in1011.2 mb - 0.00 in0.0 mm 0.01 in0.3 mm
09:20 AM 69.6°F20.9°C 38.4°F3.6°C 32% 5.5 mph WSW8.9 kmh WSW 16.6 mph26.7 kmh 29.86 in1011.2 mb - 0.00 in0.0 mm 0.01 in0.3 mm
09:10 AM 69.1°F20.6°C 38.0°F3.3°C 32% 4.9 mph NW7.9 kmh NW 10.5 mph16.9 kmh 29.86 in1011.2 mb - 0.00 in0.0 mm 0.01 in0.3 mm
09:00 AM 68.5°F20.3°C 39.0°F3.9°C 34% 4.3 mph SW6.9 kmh SW 9.9 mph15.9 kmh 29.86 in1011.2 mb - 0.00 in0.0 mm 0.01 in0.3 mm
08:50 AM 68.2°F20.1°C 38.7°F3.7°C 34% 8.3 mph W13.4 kmh W 10.5 mph16.9 kmh 29.86 in1011.2 mb - 0.00 in0.0 mm 0.01 in0.3 mm
08:40 AM 67.8°F19.9°C 38.4°F3.6°C 34% 7.9 mph WSW12.7 kmh WSW 14.2 mph22.9 kmh 29.86 in1011.2 mb - 0.00 in0.0 mm 0.01 in0.3 mm
08:30 AM 67.6°F19.8°C 39.0°F3.9°C 35% 6.5 mph W10.5 kmh W 17.1 mph27.5 kmh 29.86 in1011.2 mb - 0.00 in0.0 mm 0.01 in0.3 mm
08:20 AM 67.5°F19.7°C 42.3°F5.7°C 40% Calm Calm 2.9 mph4.7 kmh 29.86 in1011.2 mb - 0.00 in0.0 mm 0.01 in0.3 mm
08:10 AM 66.9°F19.4°C 42.4°F5.8°C 41% Calm Calm 7.0 mph11.3 kmh 29.86 in1011.2 mb - 0.00 in0.0 mm 0.01 in0.3 mm
08:00 AM 66.5°F19.2°C 43.3°F6.3°C 43% 3.3 mph SW5.3 kmh SW 7.0 mph11.3 kmh 29.86 in1011.2 mb - 0.00 in0.0 mm 0.01 in0.3 mm
07:50 AM 66.2°F19.0°C 43.6°F6.4°C 44% 6.6 mph NW10.6 kmh NW 14.2 mph22.9 kmh 29.86 in1011.2 mb - 0.00 in0.0 mm 0.01 in0.3 mm
07:40 AM 65.8°F18.8°C 44.4°F6.9°C 46% 4.7 mph WNW7.6 kmh WNW 8.1 mph13.0 kmh 29.86 in1011.2 mb - 0.00 in0.0 mm 0.01 in0.3 mm
07:30 AM 65.7°F18.7°C 44.9°F7.2°C 47% 2.5 mph SE4.0 kmh SE 3.5 mph5.6 kmh 29.86 in1011.2 mb - 0.00 in0.0 mm 0.01 in0.3 mm
07:20 AM 65.4°F18.6°C 45.7°F7.6°C 49% 2.2 mph NNW3.5 kmh NNW 3.5 mph5.6 kmh 29.86 in1011.2 mb - 0.00 in0.0 mm 0.01 in0.3 mm
07:10 AM 65.1°F18.4°C 45.5°F7.5°C 49% 2.7 mph SW4.3 kmh SW 8.1 mph13.0 kmh 29.86 in1011.2 mb - 0.00 in0.0 mm 0.01 in0.3 mm
07:00 AM 64.8°F18.2°C 45.1°F7.3°C 49% 2.7 mph W4.3 kmh W 7.6 mph12.2 kmh 29.86 in1011.2 mb - 0.00 in0.0 mm 0.01 in0.3 mm
06:50 AM 64.7°F18.2°C 45.1°F7.3°C 49% 3.7 mph SW6.0 kmh SW 7.6 mph12.2 kmh 29.86 in1011.2 mb - 0.00 in0.0 mm 0.01 in0.3 mm
06:40 AM 64.4°F18.0°C 44.8°F7.1°C 49% 5.8 mph W9.3 kmh W 7.0 mph11.3 kmh 29.82 in1009.8 mb - 0.00 in0.0 mm 0.01 in0.3 mm
06:30 AM 64.3°F17.9°C 45.8°F7.7°C 51% 3.1 mph SW5.0 kmh SW 7.6 mph12.2 kmh 29.82 in1009.8 mb - 0.00 in0.0 mm 0.01 in0.3 mm
06:20 AM 64.2°F17.9°C 45.7°F7.6°C 51% 3.7 mph WSW6.0 kmh WSW 4.1 mph6.6 kmh 29.82 in1009.8 mb - 0.00 in0.0 mm 0.01 in0.3 mm
06:10 AM 63.9°F17.7°C 45.9°F7.7°C 52% 2.9 mph SW4.7 kmh SW 6.4 mph10.3 kmh 29.82 in1009.8 mb - 0.00 in0.0 mm 0.01 in0.3 mm
06:00 AM 63.5°F17.5°C 48.0°F8.9°C 57% 2.2 mph SSW3.5 kmh SSW 4.1 mph6.6 kmh 29.82 in1009.8 mb - 0.00 in0.0 mm 0.01 in0.3 mm
05:50 AM 63.1°F17.3°C 49.5°F9.7°C 61% Calm Calm 6.4 mph10.3 kmh 29.82 in1009.8 mb - 0.00 in0.0 mm 0.01 in0.3 mm
05:40 AM 62.8°F17.1°C 49.6°F9.8°C 62% Calm Calm 4.1 mph6.6 kmh 29.82 in1009.8 mb - 0.00 in0.0 mm 0.01 in0.3 mm
05:30 AM 62.8°F17.1°C 50.0°F10.0°C 63% Calm Calm -- 29.82 in1009.8 mb - 0.00 in0.0 mm 0.01 in0.3 mm
05:20 AM 62.8°F17.1°C 50.0°F10.0°C 63% Calm Calm -- 29.82 in1009.8 mb - 0.00 in0.0 mm 0.01 in0.3 mm
05:10 AM 62.8°F17.1°C 50.0°F10.0°C 63% Calm Calm -- 29.82 in1009.8 mb - 0.00 in0.0 mm 0.01 in0.3 mm
05:00 AM 62.8°F17.1°C 50.0°F10.0°C 63% Calm Calm -- 29.82 in1009.8 mb - 0.00 in0.0 mm 0.01 in0.3 mm
04:50 AM 62.9°F17.2°C 50.1°F10.1°C 63% Calm Calm -- 29.80 in1009.1 mb - 0.00 in0.0 mm 0.01 in0.3 mm
04:40 AM 63.0°F17.2°C 50.2°F10.1°C 63% Calm Calm -- 29.80 in1009.1 mb - 0.00 in0.0 mm 0.01 in0.3 mm
04:30 AM 63.0°F17.2°C 50.2°F10.1°C 63% Calm Calm 4.1 mph6.6 kmh 29.80 in1009.1 mb - 0.00 in0.0 mm 0.01 in0.3 mm
04:20 AM 63.1°F17.3°C 50.8°F10.4°C 64% Calm Calm 4.1 mph6.6 kmh 29.80 in1009.1 mb - 0.00 in0.0 mm 0.01 in0.3 mm
04:10 AM 63.3°F17.4°C 50.9°F10.5°C 64% Calm Calm 2.9 mph4.7 kmh 29.80 in1009.1 mb - 0.00 in0.0 mm 0.01 in0.3 mm
04:00 AM 63.1°F17.3°C 51.6°F10.9°C 66% 2.2 mph WSW3.5 kmh WSW 4.1 mph6.6 kmh 29.80 in1009.1 mb - 0.00 in0.0 mm 0.01 in0.3 mm
03:50 AM 63.3°F17.4°C 52.6°F11.4°C 68% Calm Calm -- 29.80 in1009.1 mb - 0.00 in0.0 mm 0.01 in0.3 mm
03:40 AM 63.3°F17.4°C 53.0°F11.7°C 69% Calm Calm -- 29.80 in1009.1 mb - 0.00 in0.0 mm 0.01 in0.3 mm
03:30 AM 63.3°F17.4°C 53.3°F11.8°C 70% Calm Calm -- 29.80 in1009.1 mb - 0.00 in0.0 mm 0.01 in0.3 mm
03:20 AM 63.3°F17.4°C 54.5°F12.5°C 73% Calm Calm -- 29.80 in1009.1 mb - 0.00 in0.0 mm 0.01 in0.3 mm
03:10 AM 63.3°F17.4°C 54.5°F12.5°C 73% Calm Calm -- 29.80 in1009.1 mb - 0.00 in0.0 mm 0.01 in0.3 mm
03:00 AM 63.5°F17.5°C 54.7°F12.6°C 73% Calm Calm -- 29.80 in1009.1 mb - 0.00 in0.0 mm 0.01 in0.3 mm
02:50 AM 63.7°F17.6°C 54.9°F12.7°C 73% Calm Calm 4.6 mph7.4 kmh 29.80 in1009.1 mb - 0.00 in0.0 mm 0.01 in0.3 mm
02:40 AM 63.9°F17.7°C 54.7°F12.6°C 72% Calm Calm 2.9 mph4.7 kmh 29.80 in1009.1 mb - 0.00 in0.0 mm 0.01 in0.3 mm
02:30 AM 64.0°F17.8°C 54.8°F12.7°C 72% 2.2 mph WSW3.5 kmh WSW 4.1 mph6.6 kmh 29.80 in1009.1 mb - 0.00 in0.0 mm 0.01 in0.3 mm
02:20 AM 64.2°F17.9°C 54.6°F12.6°C 71% Calm Calm 2.9 mph4.7 kmh 29.80 in1009.1 mb - 0.00 in0.0 mm 0.01 in0.3 mm
02:10 AM 64.4°F18.0°C 54.4°F12.4°C 70% 2.8 mph SSW4.5 kmh SSW 4.1 mph6.6 kmh 29.80 in1009.1 mb - 0.00 in0.0 mm 0.01 in0.3 mm
02:00 AM 64.5°F18.1°C 54.9°F12.7°C 71% Calm Calm 3.5 mph5.6 kmh 29.80 in1009.1 mb - 0.00 in0.0 mm 0.01 in0.3 mm
01:50 AM 64.6°F18.1°C 54.6°F12.6°C 70% Calm Calm -- 29.80 in1009.1 mb - 0.00 in0.0 mm 0.01 in0.3 mm
01:40 AM 64.8°F18.2°C 54.3°F12.4°C 69% Calm Calm 2.9 mph4.7 kmh 29.82 in1009.8 mb - 0.00 in0.0 mm 0.01 in0.3 mm
01:30 AM 64.9°F18.3°C 54.4°F12.4°C 69% 1.8 mph WNW2.9 kmh WNW 5.2 mph8.4 kmh 29.82 in1009.8 mb - 0.00 in0.0 mm 0.01 in0.3 mm
01:20 AM 64.8°F18.2°C 55.9°F13.3°C 73% Calm Calm -- 29.82 in1009.8 mb - 0.00 in0.0 mm 0.01 in0.3 mm
01:10 AM 64.6°F18.1°C 56.5°F13.6°C 75% 0.1 mph E0.2 kmh E -- 29.82 in1009.8 mb - 0.01 in0.3 mm 0.01 in0.3 mm
01:00 AM 64.2°F17.9°C 57.2°F14.0°C 78% Calm Calm -- 29.82 in1009.8 mb - 0.00 in0.0 mm 0.00 in0.0 mm
12:50 AM 63.9°F17.7°C 57.2°F14.0°C 79% Calm Calm 4.1 mph6.6 kmh 29.80 in1009.1 mb - 0.00 in0.0 mm 0.02 in0.5 mm
12:40 AM 63.7°F17.6°C 57.0°F13.9°C 79% Calm Calm 4.1 mph6.6 kmh 29.80 in1009.1 mb - 0.00 in0.0 mm 0.02 in0.5 mm
12:30 AM 63.7°F17.6°C 57.0°F13.9°C 79% 5.7 mph NW9.2 kmh NW 8.7 mph14.0 kmh 29.80 in1009.1 mb - 0.00 in0.0 mm 0.02 in0.5 mm
12:20 AM 63.9°F17.7°C 56.9°F13.8°C 78% 2.3 mph S3.7 kmh S 8.1 mph13.0 kmh 29.80 in1009.1 mb - 0.00 in0.0 mm 0.02 in0.5 mm
12:10 AM 64.2°F17.9°C 56.9°F13.8°C 77% 4.0 mph NW6.4 kmh NW 8.7 mph14.0 kmh 29.82 in1009.8 mb - 0.00 in0.0 mm 0.02 in0.5 mm
12:00 AM 64.4°F18.0°C 55.9°F13.3°C 74% 5.2 mph NW8.4 kmh NW 9.3 mph15.0 kmh 29.82 in1009.8 mb - 0.00 in0.0 mm 0.02 in0.5 mm